sensor_id;sensor_type;location;lat;lon;timestamp;P1;durP1;ratioP1;P2;durP2;ratioP2
75340;SDS011;64931;47.562;18.920;2024-02-15T00:00:36;16.80;;;10.70;;
75340;SDS011;64931;47.562;18.920;2024-02-15T00:03:02;15.20;;;9.30;;
75340;SDS011;64931;47.562;18.920;2024-02-15T00:05:32;16.90;;;10.20;;
75340;SDS011;64931;47.562;18.920;2024-02-15T00:08:00;19.90;;;11.70;;
75340;SDS011;64931;47.562;18.920;2024-02-15T00:10:25;17.10;;;9.60;;
75340;SDS011;64931;47.562;18.920;2024-02-15T00:12:50;15.30;;;9.50;;
75340;SDS011;64931;47.562;18.920;2024-02-15T00:15:16;17.40;;;10.40;;
75340;SDS011;64931;47.562;18.920;2024-02-15T00:17:41;15.00;;;10.00;;
75340;SDS011;64931;47.562;18.920;2024-02-15T00:20:07;16.30;;;9.50;;
75340;SDS011;64931;47.562;18.920;2024-02-15T00:22:35;17.40;;;10.30;;
75340;SDS011;64931;47.562;18.920;2024-02-15T00:25:01;19.30;;;11.70;;
75340;SDS011;64931;47.562;18.920;2024-02-15T00:27:27;18.60;;;10.80;;
75340;SDS011;64931;47.562;18.920;2024-02-15T00:29:53;21.00;;;10.50;;
75340;SDS011;64931;47.562;18.920;2024-02-15T00:32:18;17.90;;;10.00;;
75340;SDS011;64931;47.562;18.920;2024-02-15T00:34:44;17.20;;;9.60;;
75340;SDS011;64931;47.562;18.920;2024-02-15T00:37:09;13.50;;;7.70;;
75340;SDS011;64931;47.562;18.920;2024-02-15T00:39:34;16.30;;;8.30;;
75340;SDS011;64931;47.562;18.920;2024-02-15T00:42:00;13.00;;;8.10;;
75340;SDS011;64931;47.562;18.920;2024-02-15T00:44:25;11.10;;;6.40;;
75340;SDS011;64931;47.562;18.920;2024-02-15T00:46:51;12.40;;;6.60;;
75340;SDS011;64931;47.562;18.920;2024-02-15T00:49:17;10.80;;;6.70;;
75340;SDS011;64931;47.562;18.920;2024-02-15T00:51:45;15.90;;;8.80;;
75340;SDS011;64931;47.562;18.920;2024-02-15T00:54:12;18.60;;;10.90;;
75340;SDS011;64931;47.562;18.920;2024-02-15T00:56:37;19.10;;;10.80;;
75340;SDS011;64931;47.562;18.920;2024-02-15T00:59:03;16.20;;;9.70;;
75340;SDS011;64931;47.562;18.920;2024-02-15T01:01:28;20.10;;;11.10;;
75340;SDS011;64931;47.562;18.920;2024-02-15T01:03:54;16.60;;;10.60;;
75340;SDS011;64931;47.562;18.920;2024-02-15T01:06:19;16.40;;;9.60;;
75340;SDS011;64931;47.562;18.920;2024-02-15T01:08:45;14.60;;;8.80;;
75340;SDS011;64931;47.562;18.920;2024-02-15T01:11:10;13.10;;;7.10;;
75340;SDS011;64931;47.562;18.920;2024-02-15T01:13:35;13.80;;;7.10;;
75340;SDS011;64931;47.562;18.920;2024-02-15T01:16:01;12.00;;;6.70;;
75340;SDS011;64931;47.562;18.920;2024-02-15T01:18:28;12.00;;;6.30;;
75340;SDS011;64931;47.562;18.920;2024-02-15T01:20:55;10.40;;;5.10;;
75340;SDS011;64931;47.562;18.920;2024-02-15T01:23:21;10.90;;;6.10;;
75340;SDS011;64931;47.562;18.920;2024-02-15T01:25:47;9.80;;;5.50;;
75340;SDS011;64931;47.562;18.920;2024-02-15T01:28:13;11.00;;;5.80;;
75340;SDS011;64931;47.562;18.920;2024-02-15T01:30:38;11.30;;;7.10;;
75340;SDS011;64931;47.562;18.920;2024-02-15T01:33:04;14.30;;;8.40;;
75340;SDS011;64931;47.562;18.920;2024-02-15T01:35:30;17.70;;;10.00;;
75340;SDS011;64931;47.562;18.920;2024-02-15T01:37:55;14.70;;;8.10;;
75340;SDS011;64931;47.562;18.920;2024-02-15T01:40:20;12.90;;;6.50;;
75340;SDS011;64931;47.562;18.920;2024-02-15T01:42:47;10.30;;;5.70;;
75340;SDS011;64931;47.562;18.920;2024-02-15T01:45:15;8.60;;;4.80;;
75340;SDS011;64931;47.562;18.920;2024-02-15T01:47:42;8.70;;;4.90;;
75340;SDS011;64931;47.562;18.920;2024-02-15T01:50:10;8.10;;;4.90;;
75340;SDS011;64931;47.562;18.920;2024-02-15T01:52:36;8.00;;;4.20;;
75340;SDS011;64931;47.562;18.920;2024-02-15T01:55:02;7.40;;;3.60;;
75340;SDS011;64931;47.562;18.920;2024-02-15T01:57:33;8.20;;;4.00;;
75340;SDS011;64931;47.562;18.920;2024-02-15T02:00:00;6.70;;;3.30;;
75340;SDS011;64931;47.562;18.920;2024-02-15T02:02:28;7.50;;;3.30;;
75340;SDS011;64931;47.562;18.920;2024-02-15T02:04:56;6.90;;;3.50;;
75340;SDS011;64931;47.562;18.920;2024-02-15T02:07:22;8.10;;;3.60;;
75340;SDS011;64931;47.562;18.920;2024-02-15T02:09:47;6.60;;;3.50;;
75340;SDS011;64931;47.562;18.920;2024-02-15T02:12:12;7.40;;;3.40;;
75340;SDS011;64931;47.562;18.920;2024-02-15T02:14:38;7.90;;;3.70;;
75340;SDS011;64931;47.562;18.920;2024-02-15T02:17:15;12.60;;;4.10;;
75340;SDS011;64931;47.562;18.920;2024-02-15T02:19:44;6.70;;;4.00;;
75340;SDS011;64931;47.562;18.920;2024-02-15T02:24:36;6.50;;;3.00;;
75340;SDS011;64931;47.562;18.920;2024-02-15T02:27:10;7.70;;;3.40;;
75340;SDS011;64931;47.562;18.920;2024-02-15T02:29:41;8.60;;;3.30;;
75340;SDS011;64931;47.562;18.920;2024-02-15T02:32:10;10.00;;;4.50;;
75340;SDS011;64931;47.562;18.920;2024-02-15T02:34:36;10.60;;;5.10;;
75340;SDS011;64931;47.562;18.920;2024-02-15T02:37:01;10.00;;;6.10;;
75340;SDS011;64931;47.562;18.920;2024-02-15T02:39:30;12.20;;;6.80;;
75340;SDS011;64931;47.562;18.920;2024-02-15T02:41:57;12.50;;;7.50;;
75340;SDS011;64931;47.562;18.920;2024-02-15T02:44:23;11.80;;;6.10;;
75340;SDS011;64931;47.562;18.920;2024-02-15T02:46:48;10.00;;;6.00;;
75340;SDS011;64931;47.562;18.920;2024-02-15T02:49:14;13.00;;;6.50;;
75340;SDS011;64931;47.562;18.920;2024-02-15T02:51:39;10.60;;;6.20;;
75340;SDS011;64931;47.562;18.920;2024-02-15T02:54:04;9.30;;;4.80;;
75340;SDS011;64931;47.562;18.920;2024-02-15T02:56:32;9.80;;;4.90;;
75340;SDS011;64931;47.562;18.920;2024-02-15T02:58:58;8.30;;;4.90;;
75340;SDS011;64931;47.562;18.920;2024-02-15T03:01:24;10.30;;;5.20;;
75340;SDS011;64931;47.562;18.920;2024-02-15T03:03:52;8.60;;;4.30;;
75340;SDS011;64931;47.562;18.920;2024-02-15T03:06:23;8.10;;;3.80;;
75340;SDS011;64931;47.562;18.920;2024-02-15T03:08:50;7.00;;;4.00;;
75340;SDS011;64931;47.562;18.920;2024-02-15T03:11:19;7.30;;;3.60;;
75340;SDS011;64931;47.562;18.920;2024-02-15T03:13:45;8.20;;;4.60;;
75340;SDS011;64931;47.562;18.920;2024-02-15T03:16:10;8.70;;;4.00;;
75340;SDS011;64931;47.562;18.920;2024-02-15T03:18:35;7.90;;;3.40;;
75340;SDS011;64931;47.562;18.920;2024-02-15T03:21:01;8.10;;;3.40;;
75340;SDS011;64931;47.562;18.920;2024-02-15T03:23:26;9.50;;;5.30;;
75340;SDS011;64931;47.562;18.920;2024-02-15T03:25:51;9.30;;;4.50;;
75340;SDS011;64931;47.562;18.920;2024-02-15T03:28:18;8.90;;;5.00;;
75340;SDS011;64931;47.562;18.920;2024-02-15T03:30:46;8.00;;;4.60;;
75340;SDS011;64931;47.562;18.920;2024-02-15T03:33:11;8.00;;;4.20;;
75340;SDS011;64931;47.562;18.920;2024-02-15T03:35:38;7.60;;;3.80;;
75340;SDS011;64931;47.562;18.920;2024-02-15T03:38:04;7.00;;;3.70;;
75340;SDS011;64931;47.562;18.920;2024-02-15T03:40:29;7.50;;;3.90;;
75340;SDS011;64931;47.562;18.920;2024-02-15T03:42:55;6.60;;;3.40;;
75340;SDS011;64931;47.562;18.920;2024-02-15T03:45:21;6.30;;;3.80;;
75340;SDS011;64931;47.562;18.920;2024-02-15T03:47:50;8.50;;;4.30;;
75340;SDS011;64931;47.562;18.920;2024-02-15T03:50:16;9.20;;;4.10;;
75340;SDS011;64931;47.562;18.920;2024-02-15T03:52:43;9.40;;;4.00;;
75340;SDS011;64931;47.562;18.920;2024-02-15T03:55:10;6.50;;;3.50;;
75340;SDS011;64931;47.562;18.920;2024-02-15T03:57:38;7.10;;;3.70;;
75340;SDS011;64931;47.562;18.920;2024-02-15T04:00:06;7.60;;;3.30;;
75340;SDS011;64931;47.562;18.920;2024-02-15T04:02:33;10.30;;;4.90;;
75340;SDS011;64931;47.562;18.920;2024-02-15T04:05:00;7.90;;;3.90;;
75340;SDS011;64931;47.562;18.920;2024-02-15T04:07:26;10.10;;;4.20;;
75340;SDS011;64931;47.562;18.920;2024-02-15T04:09:52;10.60;;;4.50;;
75340;SDS011;64931;47.562;18.920;2024-02-15T04:12:17;7.30;;;3.90;;
75340;SDS011;64931;47.562;18.920;2024-02-15T04:14:46;7.30;;;3.80;;
75340;SDS011;64931;47.562;18.920;2024-02-15T04:17:11;9.00;;;4.60;;
75340;SDS011;64931;47.562;18.920;2024-02-15T04:19:46;7.90;;;4.60;;
75340;SDS011;64931;47.562;18.920;2024-02-15T04:22:13;7.60;;;4.30;;
75340;SDS011;64931;47.562;18.920;2024-02-15T04:27:06;7.70;;;4.00;;
75340;SDS011;64931;47.562;18.920;2024-02-15T04:29:34;7.40;;;4.50;;
75340;SDS011;64931;47.562;18.920;2024-02-15T04:32:01;9.70;;;5.10;;
75340;SDS011;64931;47.562;18.920;2024-02-15T04:34:27;10.50;;;5.10;;
75340;SDS011;64931;47.562;18.920;2024-02-15T04:36:52;8.40;;;4.10;;
75340;SDS011;64931;47.562;18.920;2024-02-15T04:39:20;7.80;;;3.70;;
75340;SDS011;64931;47.562;18.920;2024-02-15T04:41:52;7.90;;;4.40;;
75340;SDS011;64931;47.562;18.920;2024-02-15T04:44:18;6.90;;;3.60;;
75340;SDS011;64931;47.562;18.920;2024-02-15T04:46:52;7.60;;;4.30;;
75340;SDS011;64931;47.562;18.920;2024-02-15T04:49:18;9.30;;;4.80;;
75340;SDS011;64931;47.562;18.920;2024-02-15T04:51:44;13.00;;;5.20;;
75340;SDS011;64931;47.562;18.920;2024-02-15T04:54:10;9.60;;;5.80;;
75340;SDS011;64931;47.562;18.920;2024-02-15T04:56:39;10.80;;;5.60;;
75340;SDS011;64931;47.562;18.920;2024-02-15T04:59:05;9.60;;;5.30;;
75340;SDS011;64931;47.562;18.920;2024-02-15T05:01:34;9.00;;;5.70;;
75340;SDS011;64931;47.562;18.920;2024-02-15T05:04:00;10.60;;;5.90;;
75340;SDS011;64931;47.562;18.920;2024-02-15T05:06:32;8.70;;;5.90;;
75340;SDS011;64931;47.562;18.920;2024-02-15T05:08:58;10.90;;;6.50;;
75340;SDS011;64931;47.562;18.920;2024-02-15T05:11:25;11.30;;;6.60;;
75340;SDS011;64931;47.562;18.920;2024-02-15T05:13:50;10.30;;;6.70;;
75340;SDS011;64931;47.562;18.920;2024-02-15T05:16:16;9.10;;;5.10;;
75340;SDS011;64931;47.562;18.920;2024-02-15T05:18:42;8.60;;;4.90;;
75340;SDS011;64931;47.562;18.920;2024-02-15T05:21:08;10.00;;;5.70;;
75340;SDS011;64931;47.562;18.920;2024-02-15T05:23:34;9.90;;;6.10;;
75340;SDS011;64931;47.562;18.920;2024-02-15T05:26:01;9.40;;;5.60;;
75340;SDS011;64931;47.562;18.920;2024-02-15T05:28:26;8.60;;;5.30;;
75340;SDS011;64931;47.562;18.920;2024-02-15T05:31:13;11.90;;;6.70;;
75340;SDS011;64931;47.562;18.920;2024-02-15T05:33:39;9.60;;;5.60;;
75340;SDS011;64931;47.562;18.920;2024-02-15T05:36:12;11.70;;;6.30;;
75340;SDS011;64931;47.562;18.920;2024-02-15T05:38:41;11.70;;;6.30;;
75340;SDS011;64931;47.562;18.920;2024-02-15T05:41:07;15.20;;;6.60;;
75340;SDS011;64931;47.562;18.920;2024-02-15T05:43:33;7.80;;;4.90;;
75340;SDS011;64931;47.562;18.920;2024-02-15T05:46:01;11.00;;;6.20;;
75340;SDS011;64931;47.562;18.920;2024-02-15T05:48:31;10.00;;;6.00;;
75340;SDS011;64931;47.562;18.920;2024-02-15T05:51:00;11.50;;;5.90;;
75340;SDS011;64931;47.562;18.920;2024-02-15T05:53:26;9.40;;;5.90;;
75340;SDS011;64931;47.562;18.920;2024-02-15T05:55:51;13.10;;;7.90;;
75340;SDS011;64931;47.562;18.920;2024-02-15T05:58:16;14.80;;;9.40;;
75340;SDS011;64931;47.562;18.920;2024-02-15T06:00:42;13.40;;;7.20;;
75340;SDS011;64931;47.562;18.920;2024-02-15T06:03:09;11.10;;;6.50;;
75340;SDS011;64931;47.562;18.920;2024-02-15T06:05:36;10.90;;;7.00;;
75340;SDS011;64931;47.562;18.920;2024-02-15T06:08:02;8.70;;;4.80;;
75340;SDS011;64931;47.562;18.920;2024-02-15T06:10:27;11.70;;;6.10;;
75340;SDS011;64931;47.562;18.920;2024-02-15T06:12:54;9.70;;;5.90;;
75340;SDS011;64931;47.562;18.920;2024-02-15T06:15:19;11.30;;;6.00;;
75340;SDS011;64931;47.562;18.920;2024-02-15T06:17:46;10.60;;;6.10;;
75340;SDS011;64931;47.562;18.920;2024-02-15T06:20:12;9.90;;;6.10;;
75340;SDS011;64931;47.562;18.920;2024-02-15T06:22:39;13.90;;;8.40;;
75340;SDS011;64931;47.562;18.920;2024-02-15T06:25:04;13.40;;;7.80;;
75340;SDS011;64931;47.562;18.920;2024-02-15T06:27:31;14.40;;;7.30;;
75340;SDS011;64931;47.562;18.920;2024-02-15T06:29:57;16.00;;;8.40;;
75340;SDS011;64931;47.562;18.920;2024-02-15T06:32:41;12.30;;;7.40;;
75340;SDS011;64931;47.562;18.920;2024-02-15T06:35:25;12.40;;;6.70;;
75340;SDS011;64931;47.562;18.920;2024-02-15T06:38:09;12.40;;;6.40;;
75340;SDS011;64931;47.562;18.920;2024-02-15T06:40:54;10.10;;;5.70;;
75340;SDS011;64931;47.562;18.920;2024-02-15T06:43:19;11.00;;;6.60;;
75340;SDS011;64931;47.562;18.920;2024-02-15T06:45:44;9.80;;;5.80;;
75340;SDS011;64931;47.562;18.920;2024-02-15T06:48:12;13.60;;;6.90;;
75340;SDS011;64931;47.562;18.920;2024-02-15T06:50:38;10.60;;;5.60;;
75340;SDS011;64931;47.562;18.920;2024-02-15T06:53:04;9.60;;;5.50;;
75340;SDS011;64931;47.562;18.920;2024-02-15T06:55:30;8.50;;;5.30;;
75340;SDS011;64931;47.562;18.920;2024-02-15T06:57:55;8.20;;;5.20;;
75340;SDS011;64931;47.562;18.920;2024-02-15T07:00:21;9.80;;;5.50;;
75340;SDS011;64931;47.562;18.920;2024-02-15T07:02:46;10.70;;;5.10;;
75340;SDS011;64931;47.562;18.920;2024-02-15T07:05:13;9.90;;;5.40;;
75340;SDS011;64931;47.562;18.920;2024-02-15T07:07:39;8.80;;;4.90;;
75340;SDS011;64931;47.562;18.920;2024-02-15T07:10:05;8.60;;;4.70;;
75340;SDS011;64931;47.562;18.920;2024-02-15T07:12:31;10.30;;;5.30;;
75340;SDS011;64931;47.562;18.920;2024-02-15T07:14:57;8.80;;;5.10;;
75340;SDS011;64931;47.562;18.920;2024-02-15T07:17:23;9.70;;;5.80;;
75340;SDS011;64931;47.562;18.920;2024-02-15T07:19:48;8.50;;;5.20;;
75340;SDS011;64931;47.562;18.920;2024-02-15T07:22:16;9.30;;;5.30;;
75340;SDS011;64931;47.562;18.920;2024-02-15T07:24:42;8.70;;;5.30;;
75340;SDS011;64931;47.562;18.920;2024-02-15T07:27:07;9.10;;;5.30;;
75340;SDS011;64931;47.562;18.920;2024-02-15T07:29:33;11.20;;;6.00;;
75340;SDS011;64931;47.562;18.920;2024-02-15T07:32:02;8.80;;;5.50;;
75340;SDS011;64931;47.562;18.920;2024-02-15T07:34:29;10.60;;;5.30;;
75340;SDS011;64931;47.562;18.920;2024-02-15T07:36:55;12.40;;;6.20;;
75340;SDS011;64931;47.562;18.920;2024-02-15T07:39:23;9.60;;;5.30;;
75340;SDS011;64931;47.562;18.920;2024-02-15T07:41:53;9.10;;;5.50;;
75340;SDS011;64931;47.562;18.920;2024-02-15T07:44:19;9.10;;;4.90;;
75340;SDS011;64931;47.562;18.920;2024-02-15T07:46:45;8.30;;;4.60;;
75340;SDS011;64931;47.562;18.920;2024-02-15T07:49:11;9.70;;;5.10;;
75340;SDS011;64931;47.562;18.920;2024-02-15T07:51:36;9.60;;;5.20;;
75340;SDS011;64931;47.562;18.920;2024-02-15T07:54:02;9.10;;;4.80;;
75340;SDS011;64931;47.562;18.920;2024-02-15T07:56:28;9.50;;;4.70;;
75340;SDS011;64931;47.562;18.920;2024-02-15T07:58:53;8.20;;;5.00;;
75340;SDS011;64931;47.562;18.920;2024-02-15T08:01:19;10.40;;;5.60;;
75340;SDS011;64931;47.562;18.920;2024-02-15T08:03:48;10.40;;;6.10;;
75340;SDS011;64931;47.562;18.920;2024-02-15T08:06:14;10.30;;;6.20;;
75340;SDS011;64931;47.562;18.920;2024-02-15T08:08:41;10.20;;;6.20;;
75340;SDS011;64931;47.562;18.920;2024-02-15T08:11:08;12.40;;;6.90;;
75340;SDS011;64931;47.562;18.920;2024-02-15T08:13:43;11.30;;;6.20;;
75340;SDS011;64931;47.562;18.920;2024-02-15T08:16:15;10.60;;;6.20;;
75340;SDS011;64931;47.562;18.920;2024-02-15T08:18:41;12.50;;;6.70;;
75340;SDS011;64931;47.562;18.920;2024-02-15T08:21:09;12.20;;;6.90;;
75340;SDS011;64931;47.562;18.920;2024-02-15T08:23:34;12.00;;;6.90;;
75340;SDS011;64931;47.562;18.920;2024-02-15T08:25:59;12.80;;;7.30;;
75340;SDS011;64931;47.562;18.920;2024-02-15T08:28:25;12.90;;;7.40;;
75340;SDS011;64931;47.562;18.920;2024-02-15T08:30:51;13.20;;;8.00;;
75340;SDS011;64931;47.562;18.920;2024-02-15T08:33:17;12.00;;;6.50;;
75340;SDS011;64931;47.562;18.920;2024-02-15T08:35:44;11.10;;;6.40;;
75340;SDS011;64931;47.562;18.920;2024-02-15T08:38:09;9.00;;;5.80;;
75340;SDS011;64931;47.562;18.920;2024-02-15T08:40:35;10.00;;;6.20;;
75340;SDS011;64931;47.562;18.920;2024-02-15T08:43:00;12.00;;;5.90;;
75340;SDS011;64931;47.562;18.920;2024-02-15T08:45:26;11.70;;;6.60;;
75340;SDS011;64931;47.562;18.920;2024-02-15T08:47:51;12.40;;;6.40;;
75340;SDS011;64931;47.562;18.920;2024-02-15T08:50:18;11.10;;;5.70;;
75340;SDS011;64931;47.562;18.920;2024-02-15T08:52:44;11.30;;;6.20;;
75340;SDS011;64931;47.562;18.920;2024-02-15T08:55:10;11.00;;;5.70;;
75340;SDS011;64931;47.562;18.920;2024-02-15T08:57:36;11.10;;;5.00;;
75340;SDS011;64931;47.562;18.920;2024-02-15T09:00:03;8.30;;;5.40;;
75340;SDS011;64931;47.562;18.920;2024-02-15T09:02:44;10.00;;;5.40;;
75340;SDS011;64931;47.562;18.920;2024-02-15T09:05:11;11.90;;;5.80;;
75340;SDS011;64931;47.562;18.920;2024-02-15T09:07:39;8.70;;;5.00;;
75340;SDS011;64931;47.562;18.920;2024-02-15T09:10:09;17.20;;;9.40;;
75340;SDS011;64931;47.562;18.920;2024-02-15T09:12:35;16.30;;;9.90;;
75340;SDS011;64931;47.562;18.920;2024-02-15T09:15:05;19.50;;;10.90;;
75340;SDS011;64931;47.562;18.920;2024-02-15T09:17:35;20.60;;;12.90;;
75340;SDS011;64931;47.562;18.920;2024-02-15T09:20:11;22.90;;;13.50;;
75340;SDS011;64931;47.562;18.920;2024-02-15T09:22:43;23.20;;;14.20;;
75340;SDS011;64931;47.562;18.920;2024-02-15T09:25:12;19.50;;;12.50;;
75340;SDS011;64931;47.562;18.920;2024-02-15T09:27:38;18.30;;;11.80;;
75340;SDS011;64931;47.562;18.920;2024-02-15T09:30:04;17.70;;;11.80;;
75340;SDS011;64931;47.562;18.920;2024-02-15T09:32:41;19.10;;;12.50;;
75340;SDS011;64931;47.562;18.920;2024-02-15T09:35:07;19.40;;;11.70;;
75340;SDS011;64931;47.562;18.920;2024-02-15T09:37:34;16.90;;;11.30;;
75340;SDS011;64931;47.562;18.920;2024-02-15T09:40:00;18.10;;;10.50;;
75340;SDS011;64931;47.562;18.920;2024-02-15T09:42:31;15.00;;;9.40;;
75340;SDS011;64931;47.562;18.920;2024-02-15T09:45:00;17.40;;;10.70;;
75340;SDS011;64931;47.562;18.920;2024-02-15T09:47:27;16.90;;;10.20;;
75340;SDS011;64931;47.562;18.920;2024-02-15T09:49:56;18.00;;;11.30;;
75340;SDS011;64931;47.562;18.920;2024-02-15T09:52:24;17.90;;;12.90;;
75340;SDS011;64931;47.562;18.920;2024-02-15T09:54:49;18.10;;;11.60;;
75340;SDS011;64931;47.562;18.920;2024-02-15T09:57:17;18.80;;;12.00;;
75340;SDS011;64931;47.562;18.920;2024-02-15T09:59:43;19.10;;;11.80;;
75340;SDS011;64931;47.562;18.920;2024-02-15T10:02:09;18.70;;;11.20;;
75340;SDS011;64931;47.562;18.920;2024-02-15T10:04:44;16.20;;;10.70;;
75340;SDS011;64931;47.562;18.920;2024-02-15T10:07:10;22.10;;;12.10;;
75340;SDS011;64931;47.562;18.920;2024-02-15T10:09:35;20.80;;;12.30;;
75340;SDS011;64931;47.562;18.920;2024-02-15T10:12:07;20.10;;;13.20;;
75340;SDS011;64931;47.562;18.920;2024-02-15T10:14:34;20.20;;;12.90;;
75340;SDS011;64931;47.562;18.920;2024-02-15T10:17:05;21.20;;;13.80;;
75340;SDS011;64931;47.562;18.920;2024-02-15T10:19:34;22.00;;;13.40;;
75340;SDS011;64931;47.562;18.920;2024-02-15T10:22:05;23.20;;;15.40;;
75340;SDS011;64931;47.562;18.920;2024-02-15T10:24:32;19.80;;;13.40;;
75340;SDS011;64931;47.562;18.920;2024-02-15T10:27:01;23.90;;;15.60;;
75340;SDS011;64931;47.562;18.920;2024-02-15T10:29:31;22.20;;;15.40;;
75340;SDS011;64931;47.562;18.920;2024-02-15T10:31:59;26.50;;;15.40;;
75340;SDS011;64931;47.562;18.920;2024-02-15T10:34:25;20.30;;;14.00;;
75340;SDS011;64931;47.562;18.920;2024-02-15T10:36:56;22.90;;;14.70;;
75340;SDS011;64931;47.562;18.920;2024-02-15T10:39:36;19.30;;;12.50;;
75340;SDS011;64931;47.562;18.920;2024-02-15T10:42:01;20.00;;;14.30;;
75340;SDS011;64931;47.562;18.920;2024-02-15T10:44:28;22.50;;;13.40;;
75340;SDS011;64931;47.562;18.920;2024-02-15T10:46:54;19.90;;;13.20;;
75340;SDS011;64931;47.562;18.920;2024-02-15T10:51:55;21.40;;;13.60;;
75340;SDS011;64931;47.562;18.920;2024-02-15T10:54:40;20.70;;;13.20;;
75340;SDS011;64931;47.562;18.920;2024-02-15T10:57:06;18.30;;;11.50;;
75340;SDS011;64931;47.562;18.920;2024-02-15T10:59:35;22.00;;;13.70;;
75340;SDS011;64931;47.562;18.920;2024-02-15T11:02:23;19.40;;;12.90;;
75340;SDS011;64931;47.562;18.920;2024-02-15T11:05:03;19.30;;;12.50;;
75340;SDS011;64931;47.562;18.920;2024-02-15T11:07:34;16.30;;;11.80;;
75340;SDS011;64931;47.562;18.920;2024-02-15T11:09:59;20.10;;;12.50;;
75340;SDS011;64931;47.562;18.920;2024-02-15T11:12:25;19.70;;;12.80;;
75340;SDS011;64931;47.562;18.920;2024-02-15T11:14:52;19.20;;;13.30;;
75340;SDS011;64931;47.562;18.920;2024-02-15T11:20:04;19.80;;;14.00;;
75340;SDS011;64931;47.562;18.920;2024-02-15T11:22:34;22.00;;;14.10;;
75340;SDS011;64931;47.562;18.920;2024-02-15T11:25:02;21.20;;;13.90;;
75340;SDS011;64931;47.562;18.920;2024-02-15T11:27:36;22.70;;;16.40;;
75340;SDS011;64931;47.562;18.920;2024-02-15T11:30:03;25.10;;;17.30;;
75340;SDS011;64931;47.562;18.920;2024-02-15T11:32:35;24.90;;;17.00;;
75340;SDS011;64931;47.562;18.920;2024-02-15T11:40:13;27.40;;;18.40;;
75340;SDS011;64931;47.562;18.920;2024-02-15T11:42:38;26.60;;;17.10;;
75340;SDS011;64931;47.562;18.920;2024-02-15T11:45:05;24.50;;;17.50;;
75340;SDS011;64931;47.562;18.920;2024-02-15T11:47:32;26.70;;;17.90;;
